»·PEaware :: N48HB KOTH-KLMT

N48HB :: KOTH-KLMT

FLIGHT INFORMATION

Flight Status: Arrived
Operator: Privately registered:
United States
More flights under this callsign
Pilot: Harold B. (11150)
Aircraft: BEECH AIRCRAFT BARON
(BE58)
More flights by this aircraft type
Origin: KOTH North Bend Mun
United States
Destination: KLMT Klamath Falls Intl
United States
More flights between these airports :: More routes between these airports
Route: OED ACLOB LMT
File this flight plan on PilotEdge
Remarks:
Altitude:
(Current/Filed)
13,500ft
Speed:
(Current/Filed)
180kts
Departed: 21-Jul-18 03:05 PM
Arrived: 21-Jul-18 03:55 PM
Distance/Time
Traveled:
134nm/0:50
Distance/Time
To Go:
Arrived

Flight Plot

Page will automatically refresh every two minutes.

Flight plan parsing failed; only flown route is shown


Map Options




Map Legend


Flown Route
Filed Route
Departure Airport
Arrival Airport
Navaid (VOR, NDB)
Fix

Horizontal Profiles

Position Reports

Time Latitude Longitude Heading Altitude Ground
Speed
21-Jul-18 14:51 43.414873 -124.244613 330 18ft 0kts
21-Jul-18 14:52 43.414873 -124.244613 330 18ft 0kts
21-Jul-18 14:53 43.414873 -124.244613 330 18ft 0kts
21-Jul-18 14:54 43.414873 -124.244613 330 18ft 0kts
21-Jul-18 14:55 43.414873 -124.244613 330 18ft 0kts
21-Jul-18 14:56 43.414874 -124.244614 330 18ft 0kts
21-Jul-18 14:57 43.414874 -124.244614 330 18ft 0kts
21-Jul-18 14:58 43.414874 -124.244614 330 18ft 0kts
21-Jul-18 14:59 43.414933 -124.244636 359 18ft 3kts
21-Jul-18 15:00 43.417740 -124.246057 334 18ft 8kts
21-Jul-18 15:01 43.418812 -124.247588 240 18ft 13kts
21-Jul-18 15:02 43.416818 -124.252424 240 18ft 15kts
21-Jul-18 15:03 43.414723 -124.257571 241 18ft 15kts
21-Jul-18 15:04 43.413947 -124.259917 317 18ft 0kts
21-Jul-18 15:05 43.414533 -124.260362 332 18ft 10kts
21-Jul-18 15:06 43.425627 -124.234167 59 738ft 130kts
21-Jul-18 15:07 43.408626 -124.193654 145 3035ft 128kts
21-Jul-18 15:08 43.380235 -124.165923 144 5328ft 129kts
21-Jul-18 15:09 43.356952 -124.141424 135 6970ft 132kts
21-Jul-18 15:10 43.330931 -124.105339 134 8766ft 136kts
21-Jul-18 15:11 43.304227 -124.068242 134 10358ft 140kts
21-Jul-18 15:12 43.276831 -124.030190 134 11776ft 143kts
21-Jul-18 15:13 43.248852 -123.991331 134 13040ft 146kts
21-Jul-18 15:14 43.221026 -123.952710 134 13299ft 184kts
21-Jul-18 15:15 43.183279 -123.900356 134 13291ft 199kts
21-Jul-18 15:16 43.144178 -123.846111 134 13290ft 203kts
21-Jul-18 15:17 43.104527 -123.791113 134 13289ft 203kts
21-Jul-18 15:18 43.064800 -123.736008 134 13289ft 204kts
21-Jul-18 15:19 43.025061 -123.680888 134 13289ft 204kts
21-Jul-18 15:20 42.998458 -123.643147 133 13289ft 204kts
21-Jul-18 15:21 42.966835 -123.596641 133 13501ft 207kts
21-Jul-18 15:22 42.926713 -123.537201 134 13502ft 216kts
21-Jul-18 15:23 42.885375 -123.477825 135 13501ft 216kts
21-Jul-18 15:24 42.844004 -123.418494 135 13501ft 216kts
21-Jul-18 15:25 42.802754 -123.359328 135 13501ft 216kts
21-Jul-18 15:26 42.761689 -123.300390 135 13490ft 216kts
21-Jul-18 15:27 42.720313 -123.241003 135 13474ft 216kts
21-Jul-18 15:28 42.679015 -123.182260 136 13457ft 216kts
21-Jul-18 15:29 42.637040 -123.124035 136 13446ft 216kts
21-Jul-18 15:30 42.595207 -123.065628 136 13444ft 216kts
21-Jul-18 15:31 42.553877 -123.006815 136 13445ft 216kts
21-Jul-18 15:32 42.513317 -122.947935 136 13445ft 215kts
21-Jul-18 15:33 42.478490 -122.882664 118 13447ft 219kts
21-Jul-18 15:34 42.450578 -122.810645 125 13445ft 217kts
21-Jul-18 15:35 42.419177 -122.741183 125 13445ft 217kts
21-Jul-18 15:36 42.387923 -122.672048 125 13429ft 217kts
21-Jul-18 15:37 42.359258 -122.600000 119 13427ft 218kts
21-Jul-18 15:38 42.332635 -122.525502 118 13426ft 221kts
21-Jul-18 15:39 42.305852 -122.450614 118 13424ft 222kts
21-Jul-18 15:40 42.279023 -122.375601 118 13426ft 222kts
21-Jul-18 15:41 42.252436 -122.301137 119 13446ft 221kts
21-Jul-18 15:42 42.239961 -122.222906 100 13133ft 202kts
21-Jul-18 15:43 42.233036 -122.155077 100 12112ft 196kts
21-Jul-18 15:44 42.225360 -122.083173 100 11013ft 194kts
21-Jul-18 15:45 42.217490 -122.012361 99 9902ft 181kts
21-Jul-18 15:46 42.210680 -121.952346 99 8825ft 153kts
21-Jul-18 15:47 42.205326 -121.898011 97 7557ft 142kts
21-Jul-18 15:48 42.206575 -121.848301 82 6657ft 127kts
21-Jul-18 15:49 42.210898 -121.802578 79 6403ft 122kts
21-Jul-18 15:50 42.217917 -121.757516 73 6450ft 123kts
21-Jul-18 15:51 42.220680 -121.712927 120 6494ft 129kts
21-Jul-18 15:52 42.198916 -121.675646 146 6188ft 125kts
21-Jul-18 15:53 42.170484 -121.662474 195 5740ft 98kts
21-Jul-18 15:54 42.155737 -121.687278 273 4774ft 84kts
21-Jul-18 15:55 42.156138 -121.717639 269 4177ft 79kts
21-Jul-18 15:56 42.156212 -121.733286 270 4096ft 9kts
21-Jul-18 15:57 42.156819 -121.736723 338 4096ft 8kts

Navigation Log

Ident Type
Flight plan parsing failed, navigation log unavailable